createdAt,value
2018-03-24T00:00:59.886Z,31.80
2018-03-24T00:01:59.978Z,33.30
2018-03-24T00:03:00.068Z,32.70
2018-03-24T00:04:00.159Z,30.40
2018-03-24T00:05:00.254Z,30.90
2018-03-24T00:06:00.349Z,33.90
2018-03-24T00:07:00.443Z,33.90
2018-03-24T00:08:00.535Z,33.80
2018-03-24T00:09:00.621Z,32.50
2018-03-24T00:10:00.712Z,30.70
2018-03-24T00:11:00.807Z,32.50
2018-03-24T00:12:00.901Z,32.20
2018-03-24T00:13:00.996Z,32.30
2018-03-24T00:14:01.087Z,32.00
2018-03-24T00:15:01.186Z,32.10
2018-03-24T00:16:01.269Z,30.60
2018-03-24T00:17:01.360Z,29.50
2018-03-24T00:18:01.456Z,31.00
2018-03-24T00:19:01.558Z,31.00
2018-03-24T00:20:01.647Z,32.10
2018-03-24T00:21:01.732Z,30.70
2018-03-24T00:22:01.822Z,30.00
2018-03-24T00:23:01.914Z,32.40
2018-03-24T00:24:02.021Z,33.80
2018-03-24T00:25:02.115Z,33.00
2018-03-24T00:26:02.206Z,33.40
2018-03-24T00:27:02.298Z,31.60
2018-03-24T00:28:02.391Z,33.30
2018-03-24T00:29:02.482Z,33.30
2018-03-24T00:30:02.578Z,30.80
2018-03-24T00:31:02.667Z,31.40
2018-03-24T00:32:02.759Z,32.10
2018-03-24T00:33:02.848Z,29.60
2018-03-24T00:34:02.943Z,32.40
2018-03-24T00:35:03.032Z,32.40
2018-03-24T00:36:03.147Z,32.40
2018-03-24T00:37:03.215Z,32.50
2018-03-24T00:38:03.308Z,29.90
2018-03-24T00:39:03.395Z,29.60
2018-03-24T00:40:03.487Z,31.20
2018-03-24T00:41:03.580Z,32.40
2018-03-24T00:42:03.667Z,32.90
2018-03-24T00:43:03.759Z,31.00
2018-03-24T00:44:03.850Z,32.20
2018-03-24T00:45:03.940Z,30.50
2018-03-24T00:46:04.029Z,33.10
2018-03-24T00:47:04.121Z,31.90
2018-03-24T00:48:04.221Z,31.50
2018-03-24T00:49:04.312Z,29.20
2018-03-24T00:50:04.406Z,31.70
2018-03-24T00:51:04.496Z,31.40
2018-03-24T00:52:04.590Z,30.80
2018-03-24T00:53:04.681Z,31.80
2018-03-24T00:54:04.777Z,34.00
2018-03-24T00:55:04.865Z,32.30
2018-03-24T00:56:04.973Z,31.50
2018-03-24T00:57:05.063Z,31.80
2018-03-24T00:58:05.154Z,34.50
2018-03-24T00:59:05.243Z,31.40
2018-03-24T01:00:05.336Z,29.70
2018-03-24T01:01:05.425Z,31.40
2018-03-24T01:02:05.520Z,31.10
2018-03-24T01:03:05.609Z,31.60
2018-03-24T01:04:05.696Z,31.40
2018-03-24T01:05:05.786Z,33.20
2018-03-24T01:06:05.881Z,31.70
2018-03-24T01:07:05.973Z,31.40
2018-03-24T01:08:06.064Z,31.40
2018-03-24T01:09:06.155Z,30.80
2018-03-24T01:10:06.252Z,32.40
2018-03-24T01:11:06.341Z,33.90
2018-03-24T01:12:06.428Z,34.00
2018-03-24T01:13:06.525Z,33.80
2018-03-24T01:14:06.638Z,32.20
2018-03-24T01:15:06.704Z,34.10
2018-03-24T01:16:06.799Z,31.50
2018-03-24T01:17:06.886Z,32.50
2018-03-24T01:18:06.978Z,32.40
2018-03-24T01:19:07.069Z,32.20
2018-03-24T01:20:07.163Z,31.70
2018-03-24T01:21:07.253Z,32.70
2018-03-24T01:22:07.338Z,32.10
2018-03-24T01:23:07.432Z,31.90
2018-03-24T01:24:07.520Z,32.90
2018-03-24T01:25:07.609Z,33.80
2018-03-24T01:26:07.699Z,31.30
2018-03-24T01:27:07.801Z,32.00
2018-03-24T01:28:07.891Z,33.00
2018-03-24T01:29:07.985Z,32.40
2018-03-24T01:30:08.074Z,34.10
2018-03-24T01:31:08.165Z,36.10
2018-03-24T01:32:08.255Z,32.40
2018-03-24T01:33:08.342Z,30.90
2018-03-24T01:34:08.434Z,32.80
2018-03-24T01:35:08.524Z,34.40
2018-03-24T01:36:08.617Z,34.70
2018-03-24T01:37:08.706Z,30.90
2018-03-24T01:38:08.800Z,32.10
2018-03-24T01:39:08.890Z,32.50
2018-03-24T01:40:08.982Z,34.50
2018-03-24T01:41:09.064Z,31.70
2018-03-24T01:42:09.152Z,31.20
2018-03-24T01:43:09.244Z,33.30
2018-03-24T01:44:09.335Z,33.80
2018-03-24T01:45:09.427Z,32.40
2018-03-24T01:46:09.520Z,33.30
2018-03-24T01:47:09.609Z,32.40
2018-03-24T01:48:09.701Z,31.00
2018-03-24T01:49:09.790Z,33.90
2018-03-24T01:50:09.890Z,32.70
2018-03-24T01:51:09.976Z,30.60
2018-03-24T01:52:10.070Z,30.90
2018-03-24T01:53:10.164Z,33.00
2018-03-24T01:54:10.252Z,31.40
2018-03-24T01:55:10.346Z,31.10
2018-03-24T01:56:10.434Z,31.50
2018-03-24T01:57:10.531Z,30.90
2018-03-24T01:58:10.623Z,32.40
2018-03-24T01:59:10.712Z,31.70
2018-03-24T02:00:10.799Z,30.40
2018-03-24T02:01:10.892Z,34.40
2018-03-24T02:02:10.981Z,34.70
2018-03-24T02:03:11.071Z,31.70
2018-03-24T02:04:11.170Z,32.00
2018-03-24T02:05:11.255Z,32.80
2018-03-24T02:06:11.348Z,33.20
2018-03-24T02:07:11.437Z,33.40
2018-03-24T02:08:11.528Z,32.90
2018-03-24T02:09:11.621Z,32.30
2018-03-24T02:10:11.715Z,30.90
2018-03-24T02:11:11.804Z,31.80
2018-03-24T02:12:11.895Z,31.40
2018-03-24T02:13:12.012Z,32.20
2018-03-24T02:14:12.102Z,34.50
2018-03-24T02:15:12.191Z,32.10
2018-03-24T02:16:12.284Z,30.00
2018-03-24T02:17:12.381Z,30.20
2018-03-24T02:18:12.480Z,33.60
2018-03-24T02:19:12.564Z,33.60
2018-03-24T02:20:12.658Z,31.40
2018-03-24T02:21:12.759Z,32.10
2018-03-24T02:22:12.855Z,33.00
2018-03-24T02:23:12.958Z,31.70
2018-03-24T02:24:13.050Z,31.50
2018-03-24T02:25:13.197Z,30.50
2018-03-24T02:26:13.232Z,32.10
2018-03-24T02:27:13.322Z,32.10
2018-03-24T02:28:13.406Z,31.30
2018-03-24T02:29:13.509Z,35.60
2018-03-24T02:30:13.600Z,32.80
2018-03-24T02:31:13.691Z,32.10
2018-03-24T02:32:13.781Z,31.10
2018-03-24T02:33:13.872Z,32.00
2018-03-24T02:34:13.960Z,33.80
2018-03-24T02:35:14.054Z,34.90
2018-03-24T02:36:14.145Z,32.90
2018-03-24T02:37:14.238Z,35.60
2018-03-24T02:38:14.329Z,33.80
2018-03-24T02:39:14.421Z,34.20
2018-03-24T02:40:14.509Z,33.30
2018-03-24T02:41:14.596Z,35.10
2018-03-24T02:42:14.686Z,33.70
2018-03-24T02:43:14.769Z,34.20
2018-03-24T02:44:14.858Z,35.40
2018-03-24T02:45:14.954Z,33.80
2018-03-24T02:46:15.048Z,33.80
2018-03-24T02:47:15.130Z,33.10
2018-03-24T02:48:15.227Z,34.10
2018-03-24T02:49:15.318Z,36.40
2018-03-24T02:50:15.406Z,35.40
2018-03-24T02:51:15.497Z,35.60
2018-03-24T02:52:15.588Z,35.70
2018-03-24T02:53:15.681Z,33.60
2018-03-24T02:54:15.772Z,34.80
2018-03-24T02:55:15.873Z,35.60
2018-03-24T02:56:15.962Z,33.10
2018-03-24T02:57:16.054Z,32.10
2018-03-24T02:58:16.148Z,33.50
2018-03-24T02:59:16.244Z,32.30
2018-03-24T03:00:16.337Z,32.30
2018-03-24T03:01:16.421Z,32.20
2018-03-24T03:02:16.511Z,33.80
2018-03-24T03:03:16.601Z,33.70
2018-03-24T03:04:16.691Z,34.50
2018-03-24T03:05:16.782Z,33.20
2018-03-24T03:06:16.875Z,33.30
2018-03-24T03:07:16.970Z,32.50
2018-03-24T03:08:17.055Z,32.60
2018-03-24T03:09:17.146Z,31.30
2018-03-24T03:10:17.236Z,31.90
2018-03-24T03:11:17.328Z,32.70
2018-03-24T03:12:17.422Z,32.40
2018-03-24T03:13:17.513Z,32.80
2018-03-24T03:14:17.603Z,34.50
2018-03-24T03:15:17.691Z,32.10
2018-03-24T03:16:17.784Z,32.90
2018-03-24T03:17:17.876Z,32.20
2018-03-24T03:18:17.969Z,34.70
2018-03-24T03:19:18.053Z,34.60
2018-03-24T03:20:18.140Z,35.20
2018-03-24T03:21:18.237Z,33.80
2018-03-24T03:22:18.323Z,35.50
2018-03-24T03:23:18.418Z,33.90
2018-03-24T03:24:18.509Z,34.30
2018-03-24T03:25:18.597Z,35.50
2018-03-24T03:26:18.689Z,37.80
2018-03-24T03:27:18.780Z,33.40
2018-03-24T03:28:18.872Z,35.10
2018-03-24T03:29:18.965Z,35.40
2018-03-24T03:30:19.057Z,35.10
2018-03-24T03:31:19.148Z,34.60
2018-03-24T03:32:19.238Z,36.10
2018-03-24T03:33:19.334Z,37.10
2018-03-24T03:34:19.425Z,37.80
2018-03-24T03:35:19.514Z,36.40
2018-03-24T03:36:19.602Z,37.50
2018-03-24T03:37:19.695Z,37.00
2018-03-24T03:38:19.779Z,38.00
2018-03-24T03:39:19.869Z,38.90
2018-03-24T03:40:19.959Z,37.30
2018-03-24T03:41:20.044Z,35.90
2018-03-24T03:42:20.138Z,37.90
2018-03-24T03:43:20.228Z,39.00
2018-03-24T03:44:20.325Z,38.40
2018-03-24T03:45:20.412Z,37.30
2018-03-24T03:46:20.505Z,37.20
2018-03-24T03:47:20.595Z,41.00
2018-03-24T03:48:20.686Z,39.70
2018-03-24T03:49:20.778Z,40.40
2018-03-24T03:50:20.874Z,34.40
2018-03-24T03:51:20.966Z,38.80
2018-03-24T03:52:21.052Z,36.90
2018-03-24T03:53:21.144Z,36.30
2018-03-24T03:54:21.235Z,37.40
2018-03-24T03:55:21.325Z,37.30
2018-03-24T03:56:21.418Z,36.50
2018-03-24T03:57:21.506Z,36.30
2018-03-24T03:58:21.597Z,37.10
2018-03-24T03:59:21.689Z,37.60
2018-03-24T04:00:21.794Z,37.20
2018-03-24T04:01:21.856Z,39.90
2018-03-24T04:02:21.945Z,35.80
2018-03-24T04:03:22.026Z,37.50
2018-03-24T04:04:22.118Z,36.20
2018-03-24T04:05:22.211Z,36.60
2018-03-24T04:06:22.300Z,37.10
2018-03-24T04:07:22.393Z,38.40
2018-03-24T04:08:22.484Z,35.70
2018-03-24T04:09:22.576Z,37.30
2018-03-24T04:10:22.665Z,35.60
2018-03-24T04:11:22.757Z,37.80
2018-03-24T04:12:22.851Z,38.50
2018-03-24T04:13:22.935Z,36.70
2018-03-24T04:14:23.027Z,39.90
2018-03-24T04:15:23.116Z,40.20
2018-03-24T04:16:23.209Z,44.50
2018-03-24T04:17:23.300Z,37.10
2018-03-24T04:18:23.388Z,41.00
2018-03-24T04:19:23.504Z,38.00
2018-03-24T04:20:23.573Z,38.20
2018-03-24T04:21:23.667Z,41.00
2018-03-24T04:22:23.748Z,41.40
2018-03-24T04:23:23.848Z,41.00
2018-03-24T04:24:23.937Z,41.50
2018-03-24T04:25:24.031Z,45.20
2018-03-24T04:26:24.126Z,43.10
2018-03-24T04:27:24.215Z,45.10
2018-03-24T04:28:24.325Z,41.20
2018-03-24T04:29:24.420Z,39.40
2018-03-24T04:30:24.509Z,37.70
2018-03-24T04:31:24.604Z,38.40
2018-03-24T04:32:24.696Z,39.50
2018-03-24T04:33:24.788Z,37.50
2018-03-24T04:34:24.876Z,37.30
2018-03-24T04:35:24.964Z,38.00
2018-03-24T04:36:25.051Z,39.70
2018-03-24T04:37:25.146Z,39.80
2018-03-24T04:38:25.234Z,38.50
2018-03-24T04:39:25.324Z,39.50
2018-03-24T04:40:25.415Z,41.20
2018-03-24T04:41:25.514Z,42.00
2018-03-24T04:42:25.602Z,41.60
2018-03-24T04:43:25.692Z,40.70
2018-03-24T04:44:25.786Z,38.80
2018-03-24T04:45:25.873Z,41.60
2018-03-24T04:46:25.965Z,39.70
2018-03-24T04:47:26.055Z,40.10
2018-03-24T04:48:26.145Z,42.30
2018-03-24T04:49:26.236Z,39.70
2018-03-24T04:50:26.330Z,41.60
2018-03-24T04:51:26.419Z,45.60
2018-03-24T04:52:26.507Z,43.50
2018-03-24T04:53:26.600Z,39.00
2018-03-24T04:54:26.688Z,40.80
2018-03-24T04:55:26.775Z,41.00
2018-03-24T04:56:26.861Z,38.60
2018-03-24T04:57:26.949Z,40.70
2018-03-24T04:58:27.037Z,38.20
2018-03-24T04:59:27.126Z,41.60
2018-03-24T05:00:27.207Z,38.50
2018-03-24T05:01:27.294Z,40.70
2018-03-24T05:02:27.387Z,37.20
2018-03-24T05:03:27.480Z,36.50
2018-03-24T05:04:27.571Z,38.40
2018-03-24T05:05:27.666Z,38.70
2018-03-24T05:06:27.756Z,36.80
2018-03-24T05:07:27.848Z,39.30
2018-03-24T05:08:27.945Z,38.50
2018-03-24T05:09:28.036Z,35.70
2018-03-24T05:10:28.127Z,38.80
2018-03-24T05:11:28.217Z,36.70
2018-03-24T05:12:28.308Z,37.10
2018-03-24T05:13:28.398Z,35.50
2018-03-24T05:14:28.493Z,37.40
2018-03-24T05:15:28.585Z,36.00
2018-03-24T05:16:28.673Z,40.50
2018-03-24T05:17:28.761Z,35.80
2018-03-24T05:18:28.851Z,38.90
2018-03-24T05:19:28.934Z,34.80
2018-03-24T05:20:29.021Z,35.10
2018-03-24T05:21:29.110Z,34.40
2018-03-24T05:22:29.210Z,35.20
2018-03-24T05:23:29.296Z,37.30
2018-03-24T05:24:29.387Z,35.70
2018-03-24T05:25:29.480Z,38.10
2018-03-24T05:26:29.578Z,43.30
2018-03-24T05:27:29.664Z,40.30
2018-03-24T05:28:29.757Z,35.00
2018-03-24T05:29:29.847Z,36.40
2018-03-24T05:30:29.941Z,37.10
2018-03-24T05:31:30.034Z,37.80
2018-03-24T05:32:30.123Z,38.20
2018-03-24T05:33:30.216Z,37.40
2018-03-24T05:34:30.305Z,36.30
2018-03-24T05:35:30.395Z,36.40
2018-03-24T05:36:30.485Z,40.20
2018-03-24T05:37:30.578Z,38.70
2018-03-24T05:38:30.662Z,40.40
2018-03-24T05:39:30.748Z,36.90
2018-03-24T05:40:30.840Z,40.80
2018-03-24T05:41:30.930Z,39.00
2018-03-24T05:42:31.021Z,40.50
2018-03-24T05:43:31.108Z,40.00
2018-03-24T05:44:31.204Z,39.50
2018-03-24T05:45:31.295Z,41.70
2018-03-24T05:46:31.388Z,38.00
2018-03-24T05:47:31.481Z,40.80
2018-03-24T05:48:31.638Z,40.90
2018-03-24T05:49:31.670Z,41.90
2018-03-24T05:50:31.762Z,39.00
2018-03-24T05:51:31.852Z,43.60
2018-03-24T05:52:31.945Z,38.20
2018-03-24T05:53:32.039Z,38.90
2018-03-24T05:54:32.129Z,37.70
2018-03-24T05:55:32.221Z,39.10
2018-03-24T05:56:32.311Z,39.30
2018-03-24T05:57:32.422Z,40.40
2018-03-24T05:58:32.492Z,40.40
2018-03-24T05:59:32.582Z,39.40
2018-03-24T06:00:32.676Z,37.40
2018-03-24T06:01:32.765Z,41.30
2018-03-24T06:02:32.858Z,40.10
2018-03-24T06:03:32.948Z,40.20
2018-03-24T06:04:33.039Z,41.00
2018-03-24T06:05:33.123Z,40.40
2018-03-24T06:06:33.209Z,40.90
2018-03-24T06:07:33.303Z,43.20
2018-03-24T06:08:33.391Z,38.10
2018-03-24T06:09:33.487Z,38.90
2018-03-24T06:10:33.634Z,41.50
2018-03-24T06:11:33.655Z,42.10
2018-03-24T06:12:33.745Z,39.10
2018-03-24T06:13:33.840Z,40.10
2018-03-24T06:14:33.930Z,39.90
2018-03-24T06:15:34.021Z,40.60
2018-03-24T06:16:34.112Z,39.10
2018-03-24T06:17:34.203Z,41.30
2018-03-24T06:18:34.297Z,37.50
2018-03-24T06:19:34.399Z,40.30
2018-03-24T06:20:34.489Z,38.20
2018-03-24T06:21:34.578Z,38.60
2018-03-24T06:22:34.668Z,40.00
2018-03-24T06:23:34.765Z,40.60
2018-03-24T06:24:34.853Z,38.30
2018-03-24T06:25:34.947Z,38.70
2018-03-24T06:26:35.035Z,39.90
2018-03-24T06:27:35.140Z,38.10
2018-03-24T06:28:35.222Z,38.90
2018-03-24T06:29:35.315Z,38.30
2018-03-24T06:30:35.405Z,40.50
2018-03-24T06:31:35.498Z,40.10
2018-03-24T06:32:35.595Z,40.40
2018-03-24T06:33:35.679Z,42.60
2018-03-24T06:34:35.769Z,41.70
2018-03-24T06:35:35.846Z,41.80
2018-03-24T06:36:35.943Z,42.50
2018-03-24T06:37:36.035Z,42.70
2018-03-24T06:38:36.126Z,41.40
2018-03-24T06:39:36.219Z,41.70
2018-03-24T06:40:36.315Z,40.50
2018-03-24T06:41:36.416Z,46.20
2018-03-24T06:42:36.507Z,43.30
2018-03-24T06:43:36.598Z,41.70
2018-03-24T06:44:36.692Z,43.50
2018-03-24T06:45:36.786Z,44.90
2018-03-24T06:46:36.884Z,40.30
2018-03-24T06:47:36.974Z,42.10
2018-03-24T06:48:37.058Z,40.60
2018-03-24T06:49:37.158Z,43.40
2018-03-24T06:50:37.244Z,42.90
2018-03-24T06:51:37.337Z,42.50
2018-03-24T06:52:37.429Z,43.20
2018-03-24T06:53:37.520Z,40.70
2018-03-24T06:54:37.614Z,43.10
2018-03-24T06:55:37.705Z,46.00
2018-03-24T06:56:37.796Z,46.30
2018-03-24T06:57:37.888Z,47.50
2018-03-24T06:58:37.978Z,46.90
2018-03-24T06:59:38.080Z,46.80
2018-03-24T07:00:38.197Z,44.20
2018-03-24T07:01:38.264Z,46.70
2018-03-24T07:02:38.356Z,43.80
2018-03-24T07:03:38.446Z,47.30
2018-03-24T07:04:38.541Z,45.90
2018-03-24T07:05:38.638Z,44.00
2018-03-24T07:06:38.730Z,46.80
2018-03-24T07:07:38.820Z,44.90
2018-03-24T07:08:38.910Z,44.20
2018-03-24T07:09:39.002Z,43.90
2018-03-24T07:10:39.097Z,44.30
2018-03-24T07:11:39.186Z,44.40
2018-03-24T07:12:39.279Z,43.60
2018-03-24T07:13:39.367Z,42.80
2018-03-24T07:14:39.460Z,45.50
2018-03-24T07:15:39.555Z,43.00
2018-03-24T07:16:39.648Z,45.90
2018-03-24T07:17:39.742Z,44.60
2018-03-24T07:18:39.832Z,43.70
2018-03-24T07:19:39.928Z,48.20
2018-03-24T07:20:40.019Z,48.90
2018-03-24T07:21:40.126Z,47.20
2018-03-24T07:22:40.218Z,46.70
2018-03-24T07:23:40.311Z,45.30
2018-03-24T07:24:40.403Z,46.40
2018-03-24T07:25:40.496Z,45.20
2018-03-24T07:26:40.588Z,43.40
2018-03-24T07:27:40.680Z,44.70
2018-03-24T07:28:40.777Z,44.70
2018-03-24T07:29:40.871Z,45.20
2018-03-24T07:30:40.966Z,46.40
2018-03-24T07:31:41.057Z,46.20
2018-03-24T07:32:41.148Z,46.20
2018-03-24T07:33:41.232Z,43.70
2018-03-24T07:34:41.336Z,44.10
2018-03-24T07:35:41.420Z,46.10
2018-03-24T07:36:41.510Z,46.70
2018-03-24T07:37:41.605Z,44.80
2018-03-24T07:38:41.698Z,48.10
2018-03-24T07:39:41.805Z,49.90
2018-03-24T07:40:41.895Z,45.60
2018-03-24T07:41:41.990Z,47.70
2018-03-24T07:42:42.084Z,51.00
2018-03-24T07:43:42.178Z,50.60
2018-03-24T07:44:42.273Z,49.50
2018-03-24T07:45:42.372Z,49.60
2018-03-24T07:46:42.451Z,51.80
2018-03-24T07:47:42.555Z,52.50
2018-03-24T07:48:42.649Z,48.70
2018-03-24T07:49:42.745Z,50.10
2018-03-24T07:50:42.840Z,51.40
2018-03-24T07:51:42.934Z,51.20
2018-03-24T07:52:43.035Z,51.20
2018-03-24T07:53:43.144Z,52.00
2018-03-24T07:54:43.222Z,52.40
2018-03-24T07:55:43.316Z,53.20
2018-03-24T07:56:43.409Z,51.80
2018-03-24T07:57:43.501Z,50.60
2018-03-24T07:58:43.599Z,51.00
2018-03-24T07:59:43.693Z,52.70
2018-03-24T08:00:43.791Z,49.90
2018-03-24T08:01:43.887Z,50.80
2018-03-24T08:02:43.976Z,52.80
2018-03-24T08:03:44.071Z,46.80
2018-03-24T08:04:44.163Z,48.30
2018-03-24T08:05:44.258Z,49.50
2018-03-24T08:06:44.350Z,49.10
2018-03-24T08:07:44.443Z,47.30
2018-03-24T08:08:44.538Z,48.10
2018-03-24T08:09:44.632Z,46.60
2018-03-24T08:10:44.724Z,47.90
2018-03-24T08:11:44.821Z,46.80
2018-03-24T08:12:44.918Z,48.00
2018-03-24T08:13:45.009Z,47.70
2018-03-24T08:14:45.108Z,46.50
2018-03-24T08:15:45.207Z,46.00
2018-03-24T08:16:45.340Z,48.40
2018-03-24T08:17:45.392Z,48.90
2018-03-24T08:18:45.489Z,49.50
2018-03-24T08:19:45.612Z,44.40
2018-03-24T08:20:45.707Z,46.80
2018-03-24T08:21:45.801Z,43.50
2018-03-24T08:22:45.896Z,46.80
2018-03-24T08:23:45.985Z,45.90
2018-03-24T08:24:46.078Z,44.60
2018-03-24T08:25:46.170Z,46.70
2018-03-24T08:26:46.268Z,46.40
2018-03-24T08:27:46.361Z,45.70
2018-03-24T08:28:46.460Z,44.80
2018-03-24T08:29:46.603Z,48.10
2018-03-24T08:30:46.646Z,46.20
2018-03-24T08:31:46.790Z,44.40
2018-03-24T08:32:46.893Z,47.10
2018-03-24T08:33:46.999Z,45.70
2018-03-24T08:34:47.089Z,43.30
2018-03-24T08:35:47.181Z,43.70
2018-03-24T08:36:47.275Z,43.70
2018-03-24T08:37:47.376Z,46.20
2018-03-24T08:38:47.467Z,43.90
2018-03-24T08:39:47.561Z,44.50
2018-03-24T08:40:47.659Z,43.50
2018-03-24T08:41:47.757Z,42.60
2018-03-24T08:42:47.854Z,44.70
2018-03-24T08:43:47.942Z,46.50
2018-03-24T08:44:48.036Z,47.50
2018-03-24T08:45:48.133Z,45.40
2018-03-24T08:46:48.224Z,43.60
2018-03-24T08:47:48.328Z,42.90
2018-03-24T08:48:48.406Z,42.80
2018-03-24T08:52:20.557Z,40.70
2018-03-24T08:53:20.651Z,41.40
2018-03-24T08:54:20.746Z,33.60
2018-03-24T08:55:20.842Z,35.00
2018-03-24T08:56:20.935Z,38.10
2018-03-24T08:57:21.031Z,35.90
2018-03-24T08:58:21.130Z,37.30
2018-03-24T08:59:21.227Z,35.50
2018-03-24T09:00:21.323Z,32.80
2018-03-24T09:01:21.418Z,35.90
2018-03-24T09:02:21.514Z,35.10
2018-03-24T09:03:21.619Z,33.10
2018-03-24T09:04:21.722Z,33.80
2018-03-24T09:05:21.810Z,34.10
2018-03-24T09:06:21.902Z,34.00
2018-03-24T09:07:22.001Z,32.80
2018-03-24T09:08:22.091Z,37.90
2018-03-24T09:09:22.189Z,35.30
2018-03-24T09:10:22.281Z,35.80
2018-03-24T09:11:22.377Z,33.80
2018-03-24T09:12:22.469Z,31.80
2018-03-24T09:13:22.562Z,34.10
2018-03-24T09:14:22.658Z,33.60
2018-03-24T09:15:22.754Z,38.70
2018-03-24T09:16:22.848Z,36.90
2018-03-24T09:17:22.991Z,35.20
2018-03-24T09:18:23.043Z,33.90
2018-03-24T09:19:23.140Z,33.70
2018-03-24T09:20:23.230Z,36.10
2018-03-24T09:21:23.326Z,34.80
2018-03-24T09:22:23.420Z,34.30
2018-03-24T09:23:23.512Z,35.80
2018-03-24T09:24:23.613Z,36.90
2018-03-24T09:25:23.706Z,38.80
2018-03-24T09:26:23.801Z,36.80
2018-03-24T09:27:23.890Z,35.70
2018-03-24T09:28:23.994Z,35.20
2018-03-24T09:29:24.086Z,34.90
2018-03-24T09:30:24.179Z,35.10
2018-03-24T09:31:24.268Z,30.10
2018-03-24T09:32:24.372Z,32.60
2018-03-24T09:33:24.459Z,25.50
2018-03-24T09:34:24.557Z,25.40
2018-03-24T09:35:24.645Z,26.30
2018-03-24T09:36:24.773Z,22.60
2018-03-24T09:37:24.861Z,23.20
2018-03-24T09:38:24.958Z,20.70
2018-03-24T09:39:25.053Z,20.00
2018-03-24T09:40:25.148Z,21.40
2018-03-24T09:41:25.242Z,18.30
2018-03-24T09:42:25.336Z,17.50
2018-03-24T09:43:25.433Z,18.80
2018-03-24T09:44:25.527Z,18.50
2018-03-24T09:45:25.628Z,18.70
2018-03-24T09:46:25.713Z,17.80
2018-03-24T09:47:25.815Z,18.90
2018-03-24T09:48:25.904Z,19.60
2018-03-24T09:49:26.002Z,21.10
2018-03-24T09:50:26.103Z,24.60
2018-03-24T09:51:26.188Z,25.90
2018-03-24T09:52:26.283Z,23.50
2018-03-24T09:53:26.373Z,24.00
2018-03-24T09:54:26.462Z,22.90
2018-03-24T09:55:26.564Z,23.40
2018-03-24T09:56:26.661Z,23.70
2018-03-24T09:57:26.755Z,23.70
2018-03-24T09:58:26.846Z,30.40
2018-03-24T09:59:26.942Z,21.90
2018-03-24T10:00:27.036Z,16.90
2018-03-24T10:01:27.129Z,19.70
2018-03-24T10:02:27.226Z,16.30
2018-03-24T10:03:27.325Z,17.40
2018-03-24T10:04:27.422Z,18.60
2018-03-24T10:05:27.515Z,24.50
2018-03-24T10:06:27.608Z,17.50
2018-03-24T10:07:27.704Z,18.50
2018-03-24T10:08:27.799Z,18.30
2018-03-24T10:09:27.907Z,22.70
2018-03-24T10:10:28.003Z,18.10
2018-03-24T10:11:28.097Z,17.70
2018-03-24T10:12:28.192Z,20.70
2018-03-24T10:13:28.292Z,18.40
2018-03-24T10:14:28.384Z,19.20
2018-03-24T10:15:28.475Z,25.30
2018-03-24T10:16:28.579Z,21.70
2018-03-24T10:17:28.683Z,20.20
2018-03-24T10:18:28.777Z,21.60
2018-03-24T10:19:28.874Z,22.80
2018-03-24T10:20:28.967Z,24.00
2018-03-24T10:21:29.064Z,25.00
2018-03-24T10:22:29.196Z,25.80
2018-03-24T10:23:29.254Z,23.70
2018-03-24T10:24:29.348Z,22.70
2018-03-24T10:25:29.439Z,23.70
2018-03-24T10:26:29.537Z,21.30
2018-03-24T10:27:29.633Z,22.60
2018-03-24T10:28:29.730Z,23.60
2018-03-24T10:29:29.823Z,22.60
2018-03-24T10:30:29.918Z,23.40
2018-03-24T10:31:30.013Z,21.60
2018-03-24T10:32:30.110Z,22.00
2018-03-24T10:33:30.205Z,23.10
2018-03-24T10:34:30.303Z,22.20
2018-03-24T10:35:30.423Z,23.50
2018-03-24T10:36:30.489Z,23.40
2018-03-24T10:37:30.580Z,23.70
2018-03-24T10:38:30.674Z,24.50
2018-03-24T10:39:30.773Z,24.30
2018-03-24T10:40:30.885Z,23.60
2018-03-24T10:41:31.017Z,23.60
2018-03-24T10:42:31.073Z,26.80
2018-03-24T10:43:31.169Z,23.20
2018-03-24T10:44:31.266Z,24.10
2018-03-24T10:45:31.361Z,21.90
2018-03-24T10:46:31.458Z,21.50
2018-03-24T10:47:31.553Z,22.00
2018-03-24T10:48:31.647Z,20.40
2018-03-24T10:49:31.744Z,22.70
2018-03-24T10:50:31.845Z,22.20
2018-03-24T10:51:31.936Z,21.50
2018-03-24T10:52:32.033Z,22.20
2018-03-24T10:53:32.129Z,20.40
2018-03-24T10:54:32.225Z,21.50
2018-03-24T10:55:32.319Z,23.50
2018-03-24T10:56:32.412Z,22.10
2018-03-24T10:57:32.505Z,21.20
2018-03-24T10:58:32.601Z,22.40
2018-03-24T10:59:32.697Z,21.70
2018-03-24T11:00:32.796Z,21.90
2018-03-24T11:01:32.888Z,21.40
2018-03-24T11:02:33.000Z,23.10
2018-03-24T11:03:33.095Z,21.40
2018-03-24T11:04:33.194Z,23.90
2018-03-24T11:05:33.292Z,20.10
2018-03-24T11:06:33.389Z,21.80
2018-03-24T11:07:33.483Z,25.10
2018-03-24T11:08:33.579Z,21.20
2018-03-24T11:09:33.676Z,22.50
2018-03-24T11:10:33.771Z,23.10
2018-03-24T11:11:33.865Z,22.00
2018-03-24T11:12:33.954Z,19.90
2018-03-24T11:13:34.055Z,28.70
2018-03-24T11:14:34.149Z,22.60
2018-03-24T11:15:34.236Z,22.00
2018-03-24T11:16:34.335Z,22.50
2018-03-24T11:17:34.432Z,21.30
2018-03-24T11:18:34.529Z,21.00
2018-03-24T11:19:34.627Z,20.40
2018-03-24T11:20:34.722Z,21.50
2018-03-24T11:21:34.816Z,24.40
2018-03-24T11:22:34.929Z,26.20
2018-03-24T11:23:35.024Z,25.60
2018-03-24T11:24:35.121Z,22.60
2018-03-24T11:25:35.219Z,20.90
2018-03-24T11:26:35.338Z,22.50
2018-03-24T11:27:35.414Z,21.00
2018-03-24T11:28:35.497Z,21.60
2018-03-24T11:29:35.597Z,21.00
2018-03-24T11:30:35.691Z,21.70
2018-03-24T11:31:35.786Z,20.40
2018-03-24T11:32:35.882Z,21.00
2018-03-24T11:33:35.981Z,21.30
2018-03-24T11:34:36.082Z,21.40
2018-03-24T11:35:36.180Z,21.60
2018-03-24T11:36:36.271Z,23.30
2018-03-24T11:37:36.361Z,22.90
2018-03-24T11:38:36.461Z,22.80
2018-03-24T11:39:36.554Z,20.70
2018-03-24T11:40:36.655Z,19.80
2018-03-24T11:41:36.749Z,19.80
2018-03-24T11:42:36.850Z,19.90
2018-03-24T11:43:36.946Z,19.90
2018-03-24T11:44:37.047Z,21.20
2018-03-24T11:45:37.140Z,20.70
2018-03-24T11:46:37.241Z,21.60
2018-03-24T11:47:37.340Z,22.70
2018-03-24T11:48:37.445Z,21.90
2018-03-24T11:49:37.564Z,23.10
2018-03-24T11:50:37.717Z,27.70
2018-03-24T11:51:37.761Z,39.50
2018-03-24T11:52:37.865Z,27.00
2018-03-24T11:53:37.965Z,23.10
2018-03-24T11:54:38.063Z,21.40
2018-03-24T11:55:38.164Z,20.40
2018-03-24T11:56:38.268Z,22.90
2018-03-24T11:57:38.367Z,19.40
2018-03-24T11:58:38.464Z,20.00
2018-03-24T11:59:38.559Z,18.80
2018-03-24T12:00:38.654Z,18.60
2018-03-24T12:01:38.754Z,19.70
2018-03-24T12:02:38.841Z,19.50
2018-03-24T12:03:39.007Z,17.10
2018-03-24T12:04:39.040Z,18.50
2018-03-24T12:05:39.134Z,16.80
2018-03-24T12:06:39.235Z,17.90
2018-03-24T12:07:39.336Z,18.50
2018-03-24T12:08:39.434Z,17.20
2018-03-24T12:09:39.533Z,16.10
2018-03-24T12:10:39.622Z,15.00
2018-03-24T12:11:39.720Z,16.00
2018-03-24T12:12:39.816Z,16.00
2018-03-24T12:13:39.911Z,16.20
2018-03-24T12:14:40.012Z,17.50
2018-03-24T12:15:40.107Z,17.20
2018-03-24T12:16:40.219Z,16.20
2018-03-24T12:17:40.321Z,15.90
2018-03-24T12:18:40.412Z,15.00
2018-03-24T12:19:40.509Z,16.30
2018-03-24T12:20:40.601Z,15.10
2018-03-24T12:21:40.701Z,16.20
2018-03-24T12:22:40.800Z,14.90
2018-03-24T12:23:40.905Z,16.00
2018-03-24T12:24:41.003Z,16.10
2018-03-24T12:25:41.096Z,13.70
2018-03-24T12:26:41.192Z,13.40
2018-03-24T12:27:41.297Z,15.80
2018-03-24T12:28:41.388Z,14.80
2018-03-24T12:29:41.487Z,15.40
2018-03-24T12:30:41.594Z,13.40
2018-03-24T12:31:41.677Z,14.20
2018-03-24T12:32:41.775Z,15.20
2018-03-24T12:33:41.878Z,14.10
2018-03-24T12:34:41.968Z,14.80
2018-03-24T12:35:42.069Z,15.30
2018-03-24T12:36:42.167Z,15.90
2018-03-24T12:37:42.263Z,13.90
2018-03-24T12:38:42.350Z,13.80
2018-03-24T12:39:42.446Z,12.30
2018-03-24T12:40:42.542Z,12.60
2018-03-24T12:41:42.639Z,13.50
2018-03-24T12:42:42.734Z,12.60
2018-03-24T12:43:42.835Z,14.40
2018-03-24T12:44:42.932Z,14.30
2018-03-24T12:45:43.027Z,14.70
2018-03-24T12:46:43.125Z,12.70
2018-03-24T12:47:43.213Z,14.50
2018-03-24T12:48:43.314Z,13.10
2018-03-24T12:49:43.412Z,15.10
2018-03-24T12:50:43.509Z,14.60
2018-03-24T12:51:43.606Z,14.60
2018-03-24T12:52:43.702Z,15.90
2018-03-24T12:53:43.797Z,14.10
2018-03-24T12:54:43.895Z,13.40
2018-03-24T12:55:43.999Z,13.70
2018-03-24T12:56:44.088Z,12.70